Time;durP1;ratioP1;P1;durP2;ratioP2;P2;SDS_P1;SDS_P2;PMS_P1;PMS_P2;Temp;Humidity;BMP_temperature;BMP_pressure;BME280_temperature;BME280_humidity;BME280_pressure;Samples;Min_cycle;Max_cycle;Signal;HPM_P1;HPM_P2
2022/04/20 00:00:31;;;;;;;;;;;10.50;80.80;;;;;;5032926;28;19909;-88
2022/04/20 00:02:56;;;;;;;;;;;10.50;80.70;;;;;;5032947;28;19913;-88
2022/04/20 00:05:22;;;;;;;;;;;10.50;80.60;;;;;;5032909;28;20349;-88
2022/04/20 00:07:47;;;;;;;;;;;10.50;80.50;;;;;;5032395;28;20000;-88
2022/04/20 00:10:13;;;;;;;;;;;10.50;80.40;;;;;;5032710;28;19964;-88
2022/04/20 00:12:39;;;;;;;;;;;10.40;80.40;;;;;;5032751;28;19913;-88
2022/04/20 00:15:05;;;;;;;;;;;10.40;80.40;;;;;;5032801;28;19910;-88
2022/04/20 00:17:30;;;;;;;;;;;10.40;80.20;;;;;;5032532;28;19963;-88
2022/04/20 00:19:56;;;;;;;;;;;10.40;80.20;;;;;;5032789;28;20399;-88
2022/04/20 00:22:21;;;;;;;;;;;10.40;80.20;;;;;;5032755;28;19909;-88
2022/04/20 00:24:47;;;;;;;;;;;10.40;80.10;;;;;;5032747;28;19909;-88
2022/04/20 00:27:12;;;;;;;;;;;10.40;80.20;;;;;;5032701;28;19944;-88
2022/04/20 00:29:38;;;;;;;;;;;10.30;80.20;;;;;;5032462;28;19962;-88
2022/04/20 00:32:04;;;;;;;;;;;10.40;80.20;;;;;;5032556;28;19917;-88
2022/04/20 00:34:29;;;;;;;;;;;10.30;80.10;;;;;;5032647;28;19999;-88
2022/04/20 00:36:55;;;;;;;;;;;10.30;80.10;;;;;;5034600;28;19909;-88
2022/04/20 00:39:21;;;;;;;;;;;10.30;80.10;;;;;;5036625;28;19916;-88
2022/04/20 00:41:47;;;;;;;;;;;10.30;79.90;;;;;;5036307;28;20433;-89
2022/04/20 00:44:13;;;;;;;;;;;10.30;79.90;;;;;;5036074;28;20387;-88
2022/04/20 00:46:40;;;;;;;;;;;10.30;80.00;;;;;;5035991;28;20028;-88
2022/04/20 00:49:05;;;;;;;;;;;10.40;79.90;;;;;;5036163;28;19936;-88
2022/04/20 00:51:31;;;;;;;;;;;10.40;79.80;;;;;;5036110;28;20386;-88
2022/04/20 00:53:58;;;;;;;;;;;10.50;79.50;;;;;;5036083;28;19959;-88
2022/04/20 00:56:23;;;;;;;;;;;10.50;79.10;;;;;;5035863;28;19967;-88
2022/04/20 00:58:50;;;;;;;;;;;10.60;78.90;;;;;;5035965;28;20353;-88
2022/04/20 01:01:16;;;;;;;;;;;10.50;78.80;;;;;;5035993;28;19910;-88
2022/04/20 01:03:42;;;;;;;;;;;10.50;79.00;;;;;;5035934;28;19915;-88
2022/04/20 01:06:08;;;;;;;;;;;10.40;79.30;;;;;;5035586;28;20302;-88
2022/04/20 01:08:33;;;;;;;;;;;10.40;79.30;;;;;;5035700;28;19992;-88
2022/04/20 01:10:59;;;;;;;;;;;10.40;79.10;;;;;;5035694;28;19909;-88
2022/04/20 01:13:25;;;;;;;;;;;10.40;79.00;;;;;;5035655;28;19916;-88
2022/04/20 01:15:50;;;;;;;;;;;10.30;79.00;;;;;;5035385;28;19913;-88
2022/04/20 01:18:16;;;;;;;;;;;10.30;79.10;;;;;;5035884;28;19963;-88
2022/04/20 01:20:42;;;;;;;;;;;10.20;78.80;;;;;;5035834;28;19924;-88
2022/04/20 01:23:10;;;;;;;;;;;10.10;78.50;;;;;;5035563;28;20426;-88
2022/04/20 01:25:36;;;;;;;;;;;10.10;78.60;;;;;;5035247;28;19913;-88
2022/04/20 01:28:02;;;;;;;;;;;10.10;78.40;;;;;;5035496;28;19916;-88
2022/04/20 01:30:27;;;;;;;;;;;10.00;78.50;;;;;;5035359;28;19909;-88
2022/04/20 01:32:56;;;;;;;;;;;10.00;78.50;;;;;;5035240;28;19999;-88
2022/04/20 01:35:22;;;;;;;;;;;10.10;78.20;;;;;;5035397;28;19913;-88
2022/04/20 01:37:48;;;;;;;;;;;10.10;77.80;;;;;;5035285;28;19955;-88
2022/04/20 01:40:14;;;;;;;;;;;10.10;77.50;;;;;;5035261;28;20008;-88
2022/04/20 01:42:39;;;;;;;;;;;10.00;77.40;;;;;;5035189;28;19956;-88
2022/04/20 01:45:05;;;;;;;;;;;9.90;77.10;;;;;;5034878;28;19936;-88
2022/04/20 01:47:30;;;;;;;;;;;9.90;77.20;;;;;;5034577;28;19909;-88
2022/04/20 01:49:56;;;;;;;;;;;9.90;76.80;;;;;;5034921;28;19917;-89
2022/04/20 01:52:21;;;;;;;;;;;9.90;76.60;;;;;;5034976;28;20375;-88
2022/04/20 01:54:47;;;;;;;;;;;9.90;76.70;;;;;;5035032;28;20382;-88
2022/04/20 01:57:12;;;;;;;;;;;9.80;76.50;;;;;;5034936;28;19909;-89
2022/04/20 01:59:38;;;;;;;;;;;9.80;76.40;;;;;;5034893;28;19931;-88
2022/04/20 02:04:48;;;;;;;;;;;9.70;76.50;;;;;;5034582;28;19920;-88
2022/04/20 02:07:13;;;;;;;;;;;9.70;76.50;;;;;;5034554;28;19909;-88
2022/04/20 02:09:39;;;;;;;;;;;9.70;76.20;;;;;;5034570;28;19913;-88
2022/04/20 02:12:05;;;;;;;;;;;9.60;76.30;;;;;;5034599;28;19913;-88
2022/04/20 02:14:30;;;;;;;;;;;9.70;76.10;;;;;;5034380;28;19913;-88
2022/04/20 02:16:56;;;;;;;;;;;9.70;76.00;;;;;;5034523;28;20391;-88
2022/04/20 02:19:21;;;;;;;;;;;9.70;75.90;;;;;;5034480;28;20446;-88
2022/04/20 02:21:47;;;;;;;;;;;9.70;76.00;;;;;;5034441;28;20379;-88
2022/04/20 02:24:14;;;;;;;;;;;9.70;75.80;;;;;;5034373;28;20371;-88
2022/04/20 02:26:40;;;;;;;;;;;9.70;76.00;;;;;;5034205;28;20286;-88
2022/04/20 02:29:06;;;;;;;;;;;9.70;75.70;;;;;;5034310;28;19909;-88
2022/04/20 02:31:31;;;;;;;;;;;9.80;75.30;;;;;;5034130;28;20371;-88
2022/04/20 02:33:57;;;;;;;;;;;9.90;75.20;;;;;;5033995;28;19917;-88
2022/04/20 02:36:23;;;;;;;;;;;9.90;75.10;;;;;;5034124;28;19959;-88
2022/04/20 02:38:48;;;;;;;;;;;9.90;74.80;;;;;;5034388;28;19948;-88
2022/04/20 02:41:14;;;;;;;;;;;10.00;74.70;;;;;;5034092;28;19956;-88
2022/04/20 02:43:40;;;;;;;;;;;10.00;74.60;;;;;;5033987;28;20371;-88
2022/04/20 02:46:06;;;;;;;;;;;10.00;74.30;;;;;;5034007;28;19910;-88
2022/04/20 02:48:31;;;;;;;;;;;10.10;73.90;;;;;;5033964;28;19913;-88
2022/04/20 02:50:57;;;;;;;;;;;10.10;73.80;;;;;;5033809;28;19969;-88
2022/04/20 02:53:22;;;;;;;;;;;10.10;73.50;;;;;;5016184;28;19909;-88
2022/04/20 02:55:48;;;;;;;;;;;10.20;73.30;;;;;;5033518;28;19917;-88
2022/04/20 02:58:14;;;;;;;;;;;10.30;73.40;;;;;;5033763;28;20349;-88
2022/04/20 03:00:39;;;;;;;;;;;10.30;73.10;;;;;;5033572;28;20369;-88
2022/04/20 03:03:05;;;;;;;;;;;10.30;72.90;;;;;;5033706;28;19913;-88
2022/04/20 03:05:30;;;;;;;;;;;10.40;72.60;;;;;;5033427;28;20004;-88
2022/04/20 03:07:56;;;;;;;;;;;10.40;72.50;;;;;;5033433;28;19936;-87
2022/04/20 03:10:23;;;;;;;;;;;10.30;72.70;;;;;;5033531;28;20007;-88
2022/04/20 03:12:49;;;;;;;;;;;10.30;72.40;;;;;;5033469;28;19974;-88
2022/04/20 03:15:15;;;;;;;;;;;10.40;72.30;;;;;;5033292;28;19952;-88
2022/04/20 03:17:41;;;;;;;;;;;10.40;72.10;;;;;;5033470;28;20410;-88
2022/04/20 03:20:07;;;;;;;;;;;10.40;71.90;;;;;;5033458;28;19997;-88
2022/04/20 03:22:32;;;;;;;;;;;10.40;71.40;;;;;;5033654;28;20171;-88
2022/04/20 03:24:58;;;;;;;;;;;10.40;71.30;;;;;;5033104;28;19960;-88
2022/04/20 03:27:23;;;;;;;;;;;10.40;70.60;;;;;;5033331;28;19909;-88
2022/04/20 03:29:49;;;;;;;;;;;10.40;70.30;;;;;;5033329;28;19909;-88
2022/04/20 03:32:15;;;;;;;;;;;10.40;70.10;;;;;;5033046;28;19913;-88
2022/04/20 03:34:41;;;;;;;;;;;10.40;69.90;;;;;;5033006;28;20391;-88
2022/04/20 03:37:07;;;;;;;;;;;10.40;69.50;;;;;;5033164;28;19913;-88
2022/04/20 03:39:36;;;;;;;;;;;10.40;68.40;;;;;;5033197;28;19916;-88
2022/04/20 03:42:02;;;;;;;;;;;10.40;68.30;;;;;;5033126;28;19948;-88
2022/04/20 03:44:28;;;;;;;;;;;10.40;68.00;;;;;;5032891;28;19963;-88
2022/04/20 03:46:53;;;;;;;;;;;10.50;67.90;;;;;;5033111;28;20394;-88
2022/04/20 03:49:19;;;;;;;;;;;10.50;67.70;;;;;;5033020;28;19935;-88
2022/04/20 03:51:46;;;;;;;;;;;10.50;67.20;;;;;;5032989;28;20303;-88
2022/04/20 03:54:12;;;;;;;;;;;10.50;67.30;;;;;;5032832;28;19909;-88
2022/04/20 03:57:23;;;;;;;;;;;10.50;67.40;;;;;;5033309;28;19917;-88
2022/04/20 03:59:24;;;;;;;;;;;10.50;67.60;;;;;;5025662;28;19909;-88
2022/04/20 04:01:51;;;;;;;;;;;10.50;67.80;;;;;;5032952;28;19916;-88
2022/04/20 04:04:17;;;;;;;;;;;10.40;67.80;;;;;;5032711;28;20103;-88
2022/04/20 04:06:42;;;;;;;;;;;10.40;67.80;;;;;;5032519;28;19992;-88
2022/04/20 04:09:08;;;;;;;;;;;10.50;67.70;;;;;;5032686;28;19932;-88
2022/04/20 04:11:33;;;;;;;;;;;10.50;67.70;;;;;;5034051;28;19999;-88
2022/04/20 04:13:59;;;;;;;;;;;10.60;67.40;;;;;;5036855;28;19948;-88
2022/04/20 04:16:24;;;;;;;;;;;10.60;67.30;;;;;;5036582;28;20367;-88
2022/04/20 04:18:50;;;;;;;;;;;10.60;67.60;;;;;;5037303;28;20411;-88
2022/04/20 04:21:16;;;;;;;;;;;10.60;67.50;;;;;;5036751;28;20363;-88
2022/04/20 04:23:42;;;;;;;;;;;10.70;67.20;;;;;;5036668;28;19975;-88
2022/04/20 04:26:07;;;;;;;;;;;10.60;67.10;;;;;;5036465;28;20276;-88
2022/04/20 04:28:33;;;;;;;;;;;10.70;67.10;;;;;;5036604;28;20393;-88
2022/04/20 04:30:58;;;;;;;;;;;10.70;67.10;;;;;;5036410;28;20290;-88
2022/04/20 04:33:24;;;;;;;;;;;10.70;67.00;;;;;;5036434;28;19967;-88
2022/04/20 04:35:49;;;;;;;;;;;10.70;66.90;;;;;;5018397;28;20459;-88
2022/04/20 04:38:15;;;;;;;;;;;10.60;66.90;;;;;;5036446;28;20000;-88
2022/04/20 04:40:41;;;;;;;;;;;10.60;67.30;;;;;;5036375;28;20390;-88
2022/04/20 04:43:06;;;;;;;;;;;10.50;67.80;;;;;;5036331;28;19971;-88
2022/04/20 04:51:01;;;;;;;;;;;10.50;68.40;;;;;;5036434;28;19920;-88
2022/04/20 04:53:26;;;;;;;;;;;10.50;68.30;;;;;;5036378;28;19924;-88
2022/04/20 04:55:52;;;;;;;;;;;10.50;68.10;;;;;;5017970;28;19917;-88
2022/04/20 04:58:18;;;;;;;;;;;10.60;68.10;;;;;;5036061;28;19909;-88
2022/04/20 05:00:43;;;;;;;;;;;10.60;68.00;;;;;;5035849;28;20397;-88
2022/04/20 05:03:09;;;;;;;;;;;10.60;68.00;;;;;;5036794;28;19912;-88
2022/04/20 05:05:34;;;;;;;;;;;10.60;67.70;;;;;;5038294;28;19950;-88
2022/04/20 05:08:00;;;;;;;;;;;10.70;67.40;;;;;;5047552;28;19921;-88
2022/04/20 05:10:26;;;;;;;;;;;10.70;67.40;;;;;;5040326;28;19959;-88
2022/04/20 05:12:51;;;;;;;;;;;10.80;67.80;;;;;;5042992;28;19971;-88
2022/04/20 05:15:17;;;;;;;;;;;10.80;68.40;;;;;;5040889;28;20258;-88
2022/04/20 05:17:42;;;;;;;;;;;10.70;69.70;;;;;;5036089;28;19968;-88
2022/04/20 05:20:08;;;;;;;;;;;10.60;69.50;;;;;;5035573;28;19916;-88
2022/04/20 05:22:36;;;;;;;;;;;10.60;70.40;;;;;;5034564;28;20004;-88
2022/04/20 05:25:01;;;;;;;;;;;10.80;72.20;;;;;;5046585;28;19920;-88
2022/04/20 05:27:27;;;;;;;;;;;10.90;72.10;;;;;;5040815;28;20151;-88
2022/04/20 05:29:52;;;;;;;;;;;11.00;71.10;;;;;;5016789;28;19917;-89
2022/04/20 05:32:18;;;;;;;;;;;11.10;71.50;;;;;;5034865;28;19917;-88
2022/04/20 05:34:43;;;;;;;;;;;11.20;69.40;;;;;;5034735;28;19913;-88
2022/04/20 05:42:37;;;;;;;;;;;11.20;69.10;;;;;;5037068;28;19963;-88
2022/04/20 05:45:03;;;;;;;;;;;11.20;69.00;;;;;;5035271;28;19913;-88
2022/04/20 05:47:29;;;;;;;;;;;11.20;69.00;;;;;;5031180;28;19919;-88
2022/04/20 05:49:55;;;;;;;;;;;11.20;69.00;;;;;;5034722;28;20383;-88
2022/04/20 05:52:20;;;;;;;;;;;11.30;68.80;;;;;;5027521;28;20363;-88
2022/04/20 05:54:46;;;;;;;;;;;11.30;68.20;;;;;;5034361;28;19913;-89
2022/04/20 05:57:12;;;;;;;;;;;11.40;67.70;;;;;;5039537;28;19939;-88
2022/04/20 05:59:37;;;;;;;;;;;11.50;67.90;;;;;;5029575;28;20391;-88
2022/04/20 06:02:03;;;;;;;;;;;11.60;67.40;;;;;;5039984;28;19966;-89
2022/04/20 06:04:30;;;;;;;;;;;11.70;67.30;;;;;;5037982;28;19958;-88
2022/04/20 06:06:55;;;;;;;;;;;11.80;66.50;;;;;;5043178;28;19909;-89
2022/04/20 06:09:22;;;;;;;;;;;11.80;66.70;;;;;;5038464;28;19982;-88
2022/04/20 06:11:48;;;;;;;;;;;11.90;66.60;;;;;;5037182;28;19947;-88
2022/04/20 06:14:13;;;;;;;;;;;11.90;67.10;;;;;;5017137;28;20086;-88
2022/04/20 06:16:39;;;;;;;;;;;12.00;67.80;;;;;;5044021;28;19921;-89
2022/04/20 06:19:05;;;;;;;;;;;12.00;67.00;;;;;;5034525;28;19997;-89
2022/04/20 06:21:30;;;;;;;;;;;12.10;67.20;;;;;;5039093;28;19941;-89
2022/04/20 06:23:56;;;;;;;;;;;12.10;65.80;;;;;;5046929;28;20279;-89
2022/04/20 06:26:22;;;;;;;;;;;12.20;65.00;;;;;;5034479;28;20363;-89
2022/04/20 06:28:47;;;;;;;;;;;12.30;64.60;;;;;;5041028;28;19917;-89
2022/04/20 06:31:13;;;;;;;;;;;12.40;64.10;;;;;;5033672;28;19917;-88
2022/04/20 06:33:39;;;;;;;;;;;12.40;63.40;;;;;;5039482;28;19928;-89
2022/04/20 06:36:04;;;;;;;;;;;12.40;62.30;;;;;;5034510;28;20004;-89
2022/04/20 06:38:30;;;;;;;;;;;12.50;61.60;;;;;;5034293;28;20359;-89
2022/04/20 06:40:56;;;;;;;;;;;12.50;61.30;;;;;;5033365;28;19920;-89
2022/04/20 06:43:22;;;;;;;;;;;12.60;61.00;;;;;;5048226;28;20003;-89
2022/04/20 06:45:47;;;;;;;;;;;12.60;61.00;;;;;;5036277;28;19999;-89
2022/04/20 06:48:13;;;;;;;;;;;12.60;60.60;;;;;;5041384;28;19966;-89
2022/04/20 06:50:41;;;;;;;;;;;12.60;60.50;;;;;;5032399;28;20379;-89
2022/04/20 06:58:35;;;;;;;;;;;12.80;58.10;;;;;;5032541;28;20379;-89
2022/04/20 07:01:04;;;;;;;;;;;12.80;58.40;;;;;;5041201;28;19913;-89
2022/04/20 07:03:30;;;;;;;;;;;12.80;58.50;;;;;;5032850;28;19913;-89
2022/04/20 07:05:55;;;;;;;;;;;12.70;58.80;;;;;;5032239;28;20007;-89
2022/04/20 07:08:22;;;;;;;;;;;12.70;58.60;;;;;;5042431;23;19971;-89
2022/04/20 07:10:48;;;;;;;;;;;12.70;59.30;;;;;;5032546;28;19917;-89
2022/04/20 07:13:16;;;;;;;;;;;12.80;60.10;;;;;;5030198;28;21736;-89
2022/04/20 07:15:41;;;;;;;;;;;12.80;58.80;;;;;;5032752;28;20007;-89
2022/04/20 07:18:07;;;;;;;;;;;12.80;59.00;;;;;;5032620;28;20016;-89
2022/04/20 07:20:32;;;;;;;;;;;12.90;59.10;;;;;;5032838;28;19913;-89
2022/04/20 07:22:59;;;;;;;;;;;13.10;57.70;;;;;;5031445;28;19920;-88
2022/04/20 07:25:25;;;;;;;;;;;13.30;56.90;;;;;;5031217;28;19913;-88
2022/04/20 07:27:51;;;;;;;;;;;13.40;55.20;;;;;;5037642;28;19921;-88
2022/04/20 07:30:17;;;;;;;;;;;13.40;55.00;;;;;;5041005;28;20318;-89
2022/04/20 07:32:42;;;;;;;;;;;13.60;55.30;;;;;;5030744;28;19928;-89
2022/04/20 07:35:08;;;;;;;;;;;13.70;55.20;;;;;;5035972;28;20367;-89
2022/04/20 07:37:34;;;;;;;;;;;13.80;55.70;;;;;;5034929;28;20004;-89
2022/04/20 07:39:59;;;;;;;;;;;13.90;57.50;;;;;;5029420;28;20350;-89
2022/04/20 07:42:25;;;;;;;;;;;14.00;55.80;;;;;;5035301;28;20363;-89
2022/04/20 07:44:54;;;;;;;;;;;14.10;53.60;;;;;;5035896;28;20363;-89
2022/04/20 07:47:22;;;;;;;;;;;14.20;54.40;;;;;;5027461;28;19913;-89
2022/04/20 07:52:36;;;;;;;;;;;14.10;56.20;;;;;;5036602;28;20028;-89
2022/04/20 07:55:02;;;;;;;;;;;14.10;55.00;;;;;;5031988;28;19920;-89
2022/04/20 07:57:27;;;;;;;;;;;14.20;54.20;;;;;;5036347;28;19917;-88
2022/04/20 07:59:53;;;;;;;;;;;14.30;54.60;;;;;;5031681;28;19913;-89
2022/04/20 08:02:20;;;;;;;;;;;14.20;54.00;;;;;;5028772;28;19914;-89
2022/04/20 08:04:46;;;;;;;;;;;14.40;56.70;;;;;;5028529;28;19917;-89
2022/04/20 08:07:12;;;;;;;;;;;14.50;54.90;;;;;;5032535;28;19920;-88
2022/04/20 08:09:37;;;;;;;;;;;14.70;52.90;;;;;;5031056;28;19924;-89
2022/04/20 08:12:03;;;;;;;;;;;14.80;53.20;;;;;;5031763;28;19917;-88
2022/04/20 08:14:28;;;;;;;;;;;14.90;51.90;;;;;;5031577;28;19913;-89
2022/04/20 08:16:54;;;;;;;;;;;15.00;51.80;;;;;;5031163;28;19913;-89
2022/04/20 08:19:19;;;;;;;;;;;15.10;51.20;;;;;;5045570;28;20279;-89
2022/04/20 08:21:45;;;;;;;;;;;15.20;49.20;;;;;;5019007;28;20418;-88
2022/04/20 08:24:11;;;;;;;;;;;15.30;49.20;;;;;;5035934;28;20343;-88
2022/04/20 08:26:36;;;;;;;;;;;15.20;49.80;;;;;;5032411;28;19913;-88
2022/04/20 08:29:03;;;;;;;;;;;15.20;51.40;;;;;;5028985;28;19919;-88
2022/04/20 08:31:29;;;;;;;;;;;15.10;51.00;;;;;;5029685;28;20448;-88
2022/04/20 08:33:54;;;;;;;;;;;15.30;52.00;;;;;;5033130;28;19913;-88
2022/04/20 08:36:20;;;;;;;;;;;15.40;51.90;;;;;;5032217;28;19913;-88
2022/04/20 08:38:45;;;;;;;;;;;15.50;50.00;;;;;;5031330;28;19913;-88
2022/04/20 08:41:14;;;;;;;;;;;15.70;50.70;;;;;;5030219;28;19913;-88
2022/04/20 08:43:41;;;;;;;;;;;15.80;48.10;;;;;;5030875;28;19913;-88
2022/04/20 08:46:08;;;;;;;;;;;15.80;48.40;;;;;;5029576;28;20058;-88
2022/04/20 08:48:34;;;;;;;;;;;16.00;49.10;;;;;;5028048;28;19921;-88
2022/04/20 08:51:02;;;;;;;;;;;16.20;48.20;;;;;;5033656;28;19920;-89
2022/04/20 08:53:28;;;;;;;;;;;16.30;48.20;;;;;;5031416;28;19975;-88
2022/04/20 08:57:15;;;;;;;;;;;16.30;47.50;;;;;;5032115;28;20325;-88
2022/04/20 08:58:40;;;;;;;;;;;16.40;47.30;;;;;;5034518;28;19913;-88
2022/04/20 09:01:06;;;;;;;;;;;16.50;47.60;;;;;;5034651;28;19913;-89
2022/04/20 09:03:33;;;;;;;;;;;16.50;46.10;;;;;;5033304;28;19920;-88
2022/04/20 09:05:59;;;;;;;;;;;16.60;46.00;;;;;;5050722;28;19917;-88
2022/04/20 09:08:25;;;;;;;;;;;16.60;47.40;;;;;;5034308;28;19929;-88
2022/04/20 09:10:52;;;;;;;;;;;16.60;47.60;;;;;;5033833;28;19920;-88
2022/04/20 09:13:30;;;;;;;;;;;16.60;48.90;;;;;;5033107;28;19924;-88
2022/04/20 09:16:03;;;;;;;;;;;16.60;47.90;;;;;;5043977;28;19913;-88
2022/04/20 09:18:29;;;;;;;;;;;16.40;48.40;;;;;;5027539;28;19920;-88
2022/04/20 09:21:04;;;;;;;;;;;16.30;45.50;;;;;;5033320;28;20011;-88
2022/04/20 09:23:29;;;;;;;;;;;15.90;47.70;;;;;;5032531;28;20131;-88
2022/04/20 09:25:55;;;;;;;;;;;16.00;48.60;;;;;;5032967;28;19963;-89
2022/04/20 09:28:22;;;;;;;;;;;16.00;46.90;;;;;;5036448;28;19913;-88
2022/04/20 09:30:51;;;;;;;;;;;16.20;49.20;;;;;;5029006;28;19918;-88
2022/04/20 09:33:17;;;;;;;;;;;16.20;47.70;;;;;;5032943;28;19917;-89
2022/04/20 09:35:43;;;;;;;;;;;16.30;49.10;;;;;;5033199;28;19913;-89
2022/04/20 09:38:09;;;;;;;;;;;16.30;50.10;;;;;;5033359;28;19914;-88
2022/04/20 09:40:36;;;;;;;;;;;16.30;47.90;;;;;;5034539;28;19921;-88
2022/04/20 09:43:03;;;;;;;;;;;16.50;47.70;;;;;;5028908;28;20383;-89
2022/04/20 09:45:29;;;;;;;;;;;16.70;47.30;;;;;;5033842;28;19963;-88
2022/04/20 09:50:39;;;;;;;;;;;16.90;46.90;;;;;;5049951;28;19982;-88
2022/04/20 09:53:10;;;;;;;;;;;16.80;45.00;;;;;;5039817;28;20307;-88
2022/04/20 09:55:36;;;;;;;;;;;16.60;45.20;;;;;;5036970;28;19913;-88
2022/04/20 09:58:18;;;;;;;;;;;16.30;46.20;;;;;;5034842;28;19913;-88
2022/04/20 10:00:49;;;;;;;;;;;16.30;47.60;;;;;;5032379;28;19913;-88
2022/04/20 10:03:29;;;;;;;;;;;16.30;48.60;;;;;;5033348;28;19920;-89
2022/04/20 10:05:55;;;;;;;;;;;16.60;50.70;;;;;;5032450;28;19912;-88
2022/04/20 10:08:21;;;;;;;;;;;16.70;47.50;;;;;;5034766;28;19921;-89
2022/04/20 10:10:48;;;;;;;;;;;16.70;48.20;;;;;;5033591;28;19913;-88
2022/04/20 10:13:14;;;;;;;;;;;16.80;43.70;;;;;;5034605;28;19909;-89
2022/04/20 10:18:25;;;;;;;;;;;16.90;45.80;;;;;;5034604;28;19959;-88
2022/04/20 10:20:54;;;;;;;;;;;17.10;46.50;;;;;;5034528;28;19935;-89
2022/04/20 10:23:20;;;;;;;;;;;17.30;46.80;;;;;;5034405;28;19916;-89
2022/04/20 10:25:47;;;;;;;;;;;17.40;44.70;;;;;;5034257;28;19956;-89
2022/04/20 10:28:17;;;;;;;;;;;17.50;45.30;;;;;;5034682;28;19909;-89
2022/04/20 10:30:42;;;;;;;;;;;17.60;44.30;;;;;;5034291;28;19914;-88
2022/04/20 10:33:09;;;;;;;;;;;17.60;45.80;;;;;;5034164;28;19926;-88
2022/04/20 10:35:53;;;;;;;;;;;17.30;44.70;;;;;;5034062;28;19920;-88
2022/04/20 10:38:19;;;;;;;;;;;17.50;47.90;;;;;;5034189;28;19954;-89
2022/04/20 10:41:03;;;;;;;;;;;17.80;46.70;;;;;;5034161;28;19909;-88
2022/04/20 10:43:29;;;;;;;;;;;18.10;42.70;;;;;;5033797;28;19913;-88
2022/04/20 10:46:02;;;;;;;;;;;18.20;44.80;;;;;;5034042;28;19909;-89
2022/04/20 10:48:47;;;;;;;;;;;18.40;45.10;;;;;;5034004;28;19913;-88
2022/04/20 10:51:14;;;;;;;;;;;18.60;43.50;;;;;;5034168;28;20371;-89
2022/04/20 10:53:43;;;;;;;;;;;18.30;42.60;;;;;;5033689;28;19996;-88
2022/04/20 10:56:09;;;;;;;;;;;18.30;43.40;;;;;;5033856;28;20364;-89
2022/04/20 10:58:35;;;;;;;;;;;18.40;40.70;;;;;;5033818;28;19916;-88
2022/04/20 11:01:09;;;;;;;;;;;18.40;41.50;;;;;;5033748;28;19909;-88
2022/04/20 11:04:07;;;;;;;;;;;18.50;41.60;;;;;;5033471;28;19917;-89
2022/04/20 11:06:53;;;;;;;;;;;18.50;43.30;;;;;;5025675;28;19954;-89
2022/04/20 11:09:38;;;;;;;;;;;18.80;40.90;;;;;;5026238;28;19928;-89
2022/04/20 11:20:57;;;;;;;;;;;19.50;38.80;;;;;;5033472;28;20339;-88
2022/04/20 11:23:42;;;;;;;;;;;19.20;36.70;;;;;;5033354;28;20065;-89
2022/04/20 11:26:11;;;;;;;;;;;19.10;38.10;;;;;;5013592;28;19928;-88
2022/04/20 11:28:43;;;;;;;;;;;18.80;37.60;;;;;;5013650;28;19910;-88
2022/04/20 11:31:09;;;;;;;;;;;18.80;38.60;;;;;;5013442;28;19928;-88
2022/04/20 11:33:35;;;;;;;;;;;18.40;39.20;;;;;;5013793;28;19910;-89
2022/04/20 11:36:01;;;;;;;;;;;18.30;39.40;;;;;;5053033;28;20401;-88
2022/04/20 11:38:41;;;;;;;;;;;18.60;38.60;;;;;;5033347;28;19916;-88
2022/04/20 11:41:07;;;;;;;;;;;18.50;38.10;;;;;;5032011;28;19920;-88
2022/04/20 11:43:32;;;;;;;;;;;18.60;38.30;;;;;;5031059;28;19952;-88
2022/04/20 11:45:59;;;;;;;;;;;18.20;38.30;;;;;;5033025;28;19960;-88
2022/04/20 11:48:25;;;;;;;;;;;17.70;38.20;;;;;;5032475;28;19992;-88
2022/04/20 11:50:55;;;;;;;;;;;17.80;38.50;;;;;;5030747;28;20380;-88
2022/04/20 11:53:20;;;;;;;;;;;17.90;38.60;;;;;;5031897;28;19928;-89
2022/04/20 11:55:46;;;;;;;;;;;18.30;36.90;;;;;;5030786;28;19914;-88
2022/04/20 11:58:12;;;;;;;;;;;18.40;37.40;;;;;;5040011;28;19913;-88
2022/04/20 12:00:38;;;;;;;;;;;18.60;38.40;;;;;;5031818;28;19917;-88
2022/04/20 12:03:04;;;;;;;;;;;18.10;38.30;;;;;;5029838;28;20344;-88
2022/04/20 12:05:29;;;;;;;;;;;17.80;36.20;;;;;;5048070;28;20450;-89
2022/04/20 12:07:55;;;;;;;;;;;18.30;35.50;;;;;;5043185;28;19975;-88
2022/04/20 12:10:20;;;;;;;;;;;18.70;35.70;;;;;;5032345;28;19983;-89
2022/04/20 12:12:46;;;;;;;;;;;18.70;38.20;;;;;;5032804;28;19959;-88
2022/04/20 12:15:13;;;;;;;;;;;18.30;37.20;;;;;;5031939;28;20417;-89
2022/04/20 12:17:38;;;;;;;;;;;18.30;36.70;;;;;;5032521;28;19920;-88
2022/04/20 12:20:04;;;;;;;;;;;18.40;37.90;;;;;;5032541;28;19917;-89
2022/04/20 12:22:30;;;;;;;;;;;18.40;37.70;;;;;;5034736;28;19920;-88
2022/04/20 12:25:05;;;;;;;;;;;18.60;37.30;;;;;;5032169;28;20000;-89
2022/04/20 12:27:30;;;;;;;;;;;18.70;36.90;;;;;;5032033;28;19956;-89
2022/04/20 12:29:58;;;;;;;;;;;18.80;36.40;;;;;;5030246;28;19973;-89
2022/04/20 12:32:41;;;;;;;;;;;18.80;39.50;;;;;;5039482;28;20379;-89
2022/04/20 12:35:07;;;;;;;;;;;18.70;37.40;;;;;;5035448;28;20363;-89
2022/04/20 12:37:33;;;;;;;;;;;18.90;37.50;;;;;;5039516;28;19920;-89
2022/04/20 12:40:18;;;;;;;;;;;19.40;36.00;;;;;;5031642;28;19967;-89
2022/04/20 12:43:06;;;;;;;;;;;20.00;36.20;;;;;;5035356;28;19913;-89
2022/04/20 12:45:32;;;;;;;;;;;20.80;35.60;;;;;;5037989;28;19913;-89
2022/04/20 12:48:03;;;;;;;;;;;21.50;32.50;;;;;;5036234;28;20375;-89
2022/04/20 12:50:33;;;;;;;;;;;21.60;32.00;;;;;;5035066;28;19958;-89
2022/04/20 12:52:59;;;;;;;;;;;20.60;31.90;;;;;;5043369;28;19976;-89
2022/04/20 12:55:33;;;;;;;;;;;19.90;33.00;;;;;;5034130;28;19956;-88
2022/04/20 13:03:31;;;;;;;;;;;18.30;37.00;;;;;;5034149;28;20008;-89
2022/04/20 13:05:56;;;;;;;;;;;18.00;35.60;;;;;;5034302;28;19940;-88
2022/04/20 13:08:22;;;;;;;;;;;18.10;34.90;;;;;;5034081;28;20290;-89
2022/04/20 13:10:49;;;;;;;;;;;18.40;34.90;;;;;;5034236;28;20632;-89
2022/04/20 13:13:14;;;;;;;;;;;18.80;36.30;;;;;;5032086;28;19968;-89
2022/04/20 13:15:40;;;;;;;;;;;18.90;36.50;;;;;;5033716;28;19948;-89
2022/04/20 13:18:09;;;;;;;;;;;19.10;36.00;;;;;;5033489;28;19959;-89
2022/04/20 13:20:35;;;;;;;;;;;18.80;35.10;;;;;;5032897;28;19933;-88
2022/04/20 13:23:00;;;;;;;;;;;18.90;36.30;;;;;;5029725;28;19924;-89
2022/04/20 13:28:11;;;;;;;;;;;18.80;35.20;;;;;;5035671;28;19924;-89
2022/04/20 13:30:38;;;;;;;;;;;18.90;36.10;;;;;;5033005;28;19913;-89
2022/04/20 13:33:08;;;;;;;;;;;19.00;36.00;;;;;;5034586;28;20023;-89
2022/04/20 13:35:34;;;;;;;;;;;19.00;34.80;;;;;;5034491;28;19913;-89
2022/04/20 13:38:00;;;;;;;;;;;19.10;36.60;;;;;;5034943;28;19917;-89
2022/04/20 13:40:26;;;;;;;;;;;19.30;34.10;;;;;;5034958;28;20425;-89
2022/04/20 13:42:54;;;;;;;;;;;19.30;36.90;;;;;;5038386;28;19920;-89
2022/04/20 13:45:19;;;;;;;;;;;19.30;35.50;;;;;;5026779;28;19928;-89
2022/04/20 13:47:45;;;;;;;;;;;19.70;36.40;;;;;;5039719;28;19913;-89
2022/04/20 13:50:11;;;;;;;;;;;20.20;35.20;;;;;;5032261;28;19917;-89
2022/04/20 13:52:37;;;;;;;;;;;20.70;33.40;;;;;;5041076;28;20276;-89
2022/04/20 13:55:06;;;;;;;;;;;20.90;31.10;;;;;;5038050;28;19936;-89
2022/04/20 13:57:32;;;;;;;;;;;21.50;31.90;;;;;;5034231;28;19913;-89
2022/04/20 14:00:01;;;;;;;;;;;22.10;30.60;;;;;;5034906;28;19913;-89
2022/04/20 14:02:27;;;;;;;;;;;23.00;28.80;;;;;;5034527;28;19956;-89
2022/04/20 14:04:53;;;;;;;;;;;22.60;28.80;;;;;;5034913;28;19959;-90
2022/04/20 14:07:18;;;;;;;;;;;23.10;28.30;;;;;;5042574;28;19924;-89
2022/04/20 14:09:44;;;;;;;;;;;24.20;28.70;;;;;;5054532;28;20465;-89
2022/04/20 14:12:11;;;;;;;;;;;24.90;24.80;;;;;;5034047;28;19924;-89
2022/04/20 14:14:36;;;;;;;;;;;25.00;24.70;;;;;;5033819;28;19915;-89
2022/04/20 14:17:02;;;;;;;;;;;25.20;24.40;;;;;;5034420;28;19913;-89
2022/04/20 14:19:28;;;;;;;;;;;25.70;25.90;;;;;;5034172;28;20037;-89
2022/04/20 14:21:53;;;;;;;;;;;26.30;25.40;;;;;;5034431;28;19909;-90
2022/04/20 14:24:19;;;;;;;;;;;26.20;24.50;;;;;;5034822;28;20023;-90
2022/04/20 14:32:13;;;;;;;;;;;25.70;23.10;;;;;;5033639;28;19920;-89
2022/04/20 14:34:42;;;;;;;;;;;25.90;23.30;;;;;;5031763;28;19921;-89
2022/04/20 14:37:08;;;;;;;;;;;26.20;23.00;;;;;;5034034;28;19917;-89
2022/04/20 14:39:34;;;;;;;;;;;26.90;23.60;;;;;;5033382;28;19920;-90
2022/04/20 14:42:00;;;;;;;;;;;28.10;21.20;;;;;;5031968;28;20027;-90
2022/04/20 14:44:27;;;;;;;;;;;28.90;20.00;;;;;;5032554;28;20620;-90
2022/04/20 14:46:53;;;;;;;;;;;28.40;20.90;;;;;;5040687;28;19909;-89
2022/04/20 14:49:18;;;;;;;;;;;27.10;21.60;;;;;;5033471;28;19963;-90
2022/04/20 14:51:46;;;;;;;;;;;26.30;23.30;;;;;;5033056;28;19921;-89
2022/04/20 14:54:13;;;;;;;;;;;24.90;24.70;;;;;;5028027;28;20422;-89
2022/04/20 14:56:38;;;;;;;;;;;23.20;27.70;;;;;;5038893;28;20378;-89
2022/04/20 14:59:04;;;;;;;;;;;21.30;29.80;;;;;;5051689;28;19913;-90
2022/04/20 15:01:30;;;;;;;;;;;20.30;29.70;;;;;;5032336;28;19921;-89
2022/04/20 15:03:58;;;;;;;;;;;19.70;30.40;;;;;;5030835;28;19996;-90
2022/04/20 15:06:23;;;;;;;;;;;19.20;32.50;;;;;;5029838;28;20283;-89